• Join FlightAware (Why Join?)
  • Login
  • US Flag 
06:46AM EDT


 

Airport Tracker/Info


-or-


 

Live Flight TrackerFlight Track Log ✈ FLG4262 ✈ 20-Sep-2013 ✈ KBGM - KDTW

Flight Track Log - Related Links

Times and Time Zones

All times are in EDT time to prevent confusion due to time zone crossing. See the FLG4262 flight status page for this flight to view local times or setup timezone preferences in your user account.

Time Position Orientation Groundspeed Altitude Reporting Facility
EDT Latitude Longitude Course Direction KTS MPH feet Rate Location/Type
05:41PM 42.1969 -76.0611 287° West 221 254 5,100  Level New York Center
05:42PM 42.2219 -76.1528 290° West 242 278 6,900 2,460 Climbing New York Center
05:43PM 42.2240 -76.4906 287° West  Level Estimated
05:43PM 42.2489 -76.2447 292° West 262 302 10,100  Level New York Center
05:44PM 42.2805 -76.5932 307° West  Level FlightAware Approximate
05:44PM 42.2758 -76.3422 291° West 269 310 11,900  Level New York Center
05:45PM 42.2829 -76.7212 294° West  Level Estimated
05:45PM 42.3047 -76.4314 294° West 280 322 13,600  Level New York Center
05:46PM 42.3422 -76.5547 292° West 306 352 15,000 600 Climbing Cleveland Center
05:47PM 42.3892 -76.7133 292° West 374 430 15,000 720 Level Cleveland Center
05:48PM 42.4139 -76.7975 292° West 368 423 16,300 2,160 Climbing New York Center
05:49PM 42.4594 -76.9586 291° West 334 384 19,600 1,920 Climbing Cleveland Center
05:50PM 42.4936 -77.0778 291° West 339 390 20,900 1,140 Climbing Cleveland Center
05:51PM 42.5292 -77.2033 291° West 353 406 22,000 1,200 Climbing Cleveland Center
05:52PM 42.5733 -77.3569 291° West 364 419 23,400 1,140 Climbing Cleveland Center
05:53PM 42.6058 -77.4725 291° West 367 422 24,400 900 Climbing Cleveland Center
05:54PM 42.6422 -77.6022 291° West 369 425 25,300 720 Climbing Cleveland Center
05:55PM 42.6875 -77.7636 291° West 377 434 26,000 300 Climbing Cleveland Center
05:56PM 42.7275 -77.9058 291° West 394 453 26,000  Level Cleveland Center
05:57PM 42.7647 -78.0417 291° West 386 444 26,000  Level Cleveland Center
05:59PM 42.8022 -78.1789 290° West 387 445 26,000  Level Cleveland Center
06:00PM 42.8392 -78.3133 291° West 383 441 26,000  Level Cleveland Center
06:01PM 42.8753 -78.4472 290° West 377 434 26,000  Level Cleveland Center
06:02PM 42.9194 -78.6153 290° West 398 458 26,000  Level Cleveland Center
06:03PM 42.9111 -78.7661 266° West 416 479 26,000  Level Cleveland Center
06:04PM 42.8892 -78.9208 259° West 417 480 26,000  Level Cleveland Center
06:05PM 42.8661 -79.0772 259° West 422 486 26,000  Level Cleveland Center
06:06PM 42.8433 -79.2311 259° West 417 480 26,000  Level Cleveland Center
06:07PM 42.8208 -79.3842 259° West 415 478 26,000  Level Cleveland Center
06:08PM 42.7936 -79.5669 259° West 413 475 26,000  Level Cleveland Center
06:09PM 42.7697 -79.7211 258° West 416 479 26,000  Level Cleveland Center
06:10PM 42.7481 -79.8750 259° West 416 479 26,000  Level Cleveland Center
06:11PM 42.7419 -80.0544 267° West 423 487 26,000  Level Cleveland Center
06:12PM 42.7353 -80.2133 267° West 419 482 26,000  Level Cleveland Center
06:13PM 42.7308 -80.3517 268° West 369 425 26,000  Level Cleveland Center
06:14PM 42.7233 -80.4819 266° West 349 402 26,000 -60 Level Cleveland Center
06:15PM 42.7169 -80.6217 266° West 361 415 25,900 -540 Descending Cleveland Center
06:16PM 42.7111 -80.7600 267° West 366 421 24,900 -960 Descending Cleveland Center
06:17PM 42.7064 -80.8875 267° West 344 396 24,000 -960 Descending Cleveland Center
06:18PM 42.6900 -81.0319 261° West 333 383 23,000 -960 Descending Cleveland Center
06:19PM 42.6744 -81.1556 260° West 332 382 22,100 -780 Descending Cleveland Center
06:20PM 42.6611 -81.2803 262° West 331 381 21,400 -600 Descending Cleveland Center
06:21PM 42.6469 -81.3989 261° West 322 371 20,900 -540 Descending Cleveland Center
06:22PM 42.6333 -81.5172 261° West 316 364 20,400 -480 Descending Cleveland Center
06:23PM 42.6189 -81.6339 260° West 311 358 19,900 -540 Descending Cleveland Center
06:24PM 42.6031 -81.7706 261° West 312 359 19,300 -540 Descending Cleveland Center
06:25PM 42.5906 -81.8742 261° West 311 358 18,800 -540 Descending Cleveland Center
06:26PM 42.5756 -81.9914 260° West 315 362 18,300 -600 Descending Cleveland Center
06:28PM 42.5600 -82.1258 261° West 305 351 17,600 -600 Descending Cleveland Center
06:29PM 42.5275 -82.2319 247° West 302 348 17,100 -300 Descending Cleveland Center
06:30PM 42.4931 -82.3381 246° West 308 354 17,000  Descending Cleveland Center
06:31PM 42.4722 -82.4439 255° West 307 353 17,100 -360 Climbing Cleveland Center
06:31PM 42.4969 -82.5225 293° West 316 364 16,500 -900 Descending Cleveland Center
06:32PM 42.5058 -82.5511 293° West 310 357 16,200 -600 Descending Cleveland Center
06:32PM 42.5358 -82.6236 299° West 305 351 15,900 -720 Descending Cleveland Center
06:33PM 42.5461 -82.6525 296° West 307 353 15,500 -660 Descending Cleveland Center
06:33PM 42.5822 -82.7375 300° West 297 342 15,200 -540 Descending Cleveland Center
06:34PM 42.6069 -82.7569 330° Northwest 322 371 15,000 -120 Descending Cleveland Center
06:34PM 42.6700 -82.7689 352° North 348 400 15,100  Climbing Cleveland Center
06:35PM 42.6997 -82.7697 359° North 337 388 15,000  Descending Cleveland Center
06:35PM 42.7719 -82.7767 356° North 341 392 15,100  Climbing Cleveland Center
06:36PM 42.7964 -82.7772 359° North 347 399 15,000 -120 Descending Cleveland Center
06:36PM 42.8575 -82.7825 356° North 342 394 15,000 60 Level Cleveland Center
06:37PM 42.8908 -82.7839 358° North 344 396 15,100  Climbing Cleveland Center
06:37PM 42.9556 -82.7869 358° North 342 394 15,000 -240 Descending Cleveland Center
06:38PM 42.9850 -82.7933 351° North 343 395 14,900 -720 Descending Cleveland Center
06:38PM 43.0239 -82.8531 312° West 313 360 14,300 -1,260 Descending Cleveland Center
06:39PM 43.0169 -82.9072 260° West 297 342 13,600 -1,200 Descending Cleveland Center
06:39PM 43.0042 -82.9533 249° West 267 307 13,100 -1,080 Descending Cleveland Center
06:40PM 42.9878 -83.0008 245° Southwest 270 311 12,500 -1,080 Descending Cleveland Center
06:40PM 42.9717 -83.0514 246° West 260 299 12,000 -1,080 Descending Cleveland Center
06:41PM 42.9592 -83.0900 246° West 260 299 11,400 -1,380 Descending Cleveland Center
06:41PM 42.9400 -83.1383 242° Southwest 257 296 10,600 -900 Descending Cleveland Center
06:42PM 42.9042 -83.2244 240° Southwest 261 300 10,100 -240 Descending Cleveland Center
06:44PM 42.8614 -83.3211 239° Southwest 263 303 10,100  Level Cleveland Center
06:44PM 42.8258 -83.4014 239° Southwest 266 306 10,100 -360 Level Cleveland Center
06:46PM 42.7858 -83.4839 237° Southwest 266 306 9,500 -1,380 Descending Cleveland Center
06:47PM 42.7142 -83.5417 211° Southwest 262 302 7,200 -1,620 Descending Cleveland Center
06:48PM 42.6489 -83.5719 199° South 261 300 6,100 -660 Descending Cleveland Center
06:49PM 42.5836 -83.5511 167° South 260 299 6,000 -60 Descending Cleveland Center
06:50PM 42.5267 -83.5289 164° South 198 228 6,000  Level Cleveland Center
06:51PM 42.5053 -83.4519 111° Southeast 239 275 6,100  Climbing Cleveland Center
06:52PM 42.5211 -83.3581 77° East 235 270 6,000 -600 Descending Cleveland Center
06:53PM 42.5703 -83.2911 45° Northeast 244 281 4,900 -900 Descending Cleveland Center
06:54PM 42.5883 -83.2200 71° East 201 231 4,100 -420 Descending Cleveland Center
06:55PM 42.5606 -83.1708 127° Southeast 167 192 4,100  Level Cleveland Center
06:56PM 42.5128 -83.1642 174° South 170 196 4,100  Level Cleveland Center
06:57PM 42.4717 -83.1839 199° South 161 185 4,100  Level Cleveland Center
06:58PM 42.4294 -83.2150 209° Southwest 164 189 4,100  Level Cleveland Center
06:59PM 42.3894 -83.2461 210° Southwest 164 189 4,100 -360 Level Cleveland Center
07:00PM 42.3539 -83.2722 208° Southwest 167 192 3,500 -840 Descending Cleveland Center
07:01PM 42.3069 -83.3081 209° Southwest 167 192 2,500 -900 Descending Cleveland Center
07:02PM 42.2694 -83.3336 207° Southwest 137 158 1,700 -780 Descending Cleveland Center
07:03PM 42.2361 -83.3572 208° Southwest 135 155 1,000 -720 Descending Cleveland Center